sensor_id;sensor_type;location;lat;lon;timestamp;temperature;humidity
8557;DHT22;4316;53.840;10.762;2023-01-25T00:01:56;1.60;99.90
8557;DHT22;4316;53.840;10.762;2023-01-25T00:04:22;1.60;99.90
8557;DHT22;4316;53.840;10.762;2023-01-25T00:06:48;1.50;99.90
8557;DHT22;4316;53.840;10.762;2023-01-25T00:09:15;1.60;99.90
8557;DHT22;4316;53.840;10.762;2023-01-25T00:11:41;1.50;99.90
8557;DHT22;4316;53.840;10.762;2023-01-25T00:14:12;1.60;99.90
8557;DHT22;4316;53.840;10.762;2023-01-25T00:16:38;1.60;99.90
8557;DHT22;4316;53.840;10.762;2023-01-25T00:19:05;1.60;99.90
8557;DHT22;4316;53.840;10.762;2023-01-25T00:21:31;1.50;99.90
8557;DHT22;4316;53.840;10.762;2023-01-25T00:23:56;1.50;99.90
8557;DHT22;4316;53.840;10.762;2023-01-25T00:26:22;1.50;99.90
8557;DHT22;4316;53.840;10.762;2023-01-25T00:28:57;1.50;99.90
8557;DHT22;4316;53.840;10.762;2023-01-25T00:36:44;1.50;99.90
8557;DHT22;4316;53.840;10.762;2023-01-25T00:39:11;1.50;99.90
8557;DHT22;4316;53.840;10.762;2023-01-25T00:41:38;1.60;99.90
8557;DHT22;4316;53.840;10.762;2023-01-25T00:44:03;1.50;99.90
8557;DHT22;4316;53.840;10.762;2023-01-25T00:46:29;1.60;99.90
8557;DHT22;4316;53.840;10.762;2023-01-25T00:48:55;1.50;99.90
8557;DHT22;4316;53.840;10.762;2023-01-25T00:51:21;1.50;99.90
8557;DHT22;4316;53.840;10.762;2023-01-25T00:53:47;1.50;99.90
8557;DHT22;4316;53.840;10.762;2023-01-25T00:56:13;1.60;99.90
8557;DHT22;4316;53.840;10.762;2023-01-25T00:58:40;1.60;99.90
8557;DHT22;4316;53.840;10.762;2023-01-25T01:01:08;1.60;99.90
8557;DHT22;4316;53.840;10.762;2023-01-25T01:03:33;1.60;99.90
8557;DHT22;4316;53.840;10.762;2023-01-25T01:06:08;1.60;99.90
8557;DHT22;4316;53.840;10.762;2023-01-25T01:08:35;1.60;99.90
8557;DHT22;4316;53.840;10.762;2023-01-25T01:11:05;1.60;99.90
8557;DHT22;4316;53.840;10.762;2023-01-25T01:13:31;1.60;99.90
8557;DHT22;4316;53.840;10.762;2023-01-25T01:16:00;1.60;99.90
8557;DHT22;4316;53.840;10.762;2023-01-25T01:18:41;1.50;99.90
8557;DHT22;4316;53.840;10.762;2023-01-25T01:21:07;1.50;99.90
8557;DHT22;4316;53.840;10.762;2023-01-25T01:23:34;1.50;99.90
8557;DHT22;4316;53.840;10.762;2023-01-25T01:26:01;1.50;99.90
8557;DHT22;4316;53.840;10.762;2023-01-25T01:28:30;1.50;99.90
8557;DHT22;4316;53.840;10.762;2023-01-25T01:31:01;1.50;99.90
8557;DHT22;4316;53.840;10.762;2023-01-25T01:33:30;1.40;99.90
8557;DHT22;4316;53.840;10.762;2023-01-25T01:35:56;1.50;99.90
8557;DHT22;4316;53.840;10.762;2023-01-25T01:38:21;1.60;99.90
8557;DHT22;4316;53.840;10.762;2023-01-25T01:40:48;1.50;99.90
8557;DHT22;4316;53.840;10.762;2023-01-25T01:43:21;1.40;99.90
8557;DHT22;4316;53.840;10.762;2023-01-25T01:45:52;1.40;99.90
8557;DHT22;4316;53.840;10.762;2023-01-25T01:51:39;1.30;99.90
8557;DHT22;4316;53.840;10.762;2023-01-25T01:56:40;1.30;99.90
8557;DHT22;4316;53.840;10.762;2023-01-25T01:59:07;1.30;99.90
8557;DHT22;4316;53.840;10.762;2023-01-25T02:01:34;1.30;99.90
8557;DHT22;4316;53.840;10.762;2023-01-25T02:04:00;1.30;99.90
8557;DHT22;4316;53.840;10.762;2023-01-25T02:06:37;1.30;99.90
8557;DHT22;4316;53.840;10.762;2023-01-25T02:09:04;1.40;99.90
8557;DHT22;4316;53.840;10.762;2023-01-25T02:11:31;1.30;99.90
8557;DHT22;4316;53.840;10.762;2023-01-25T02:13:57;1.40;99.90
8557;DHT22;4316;53.840;10.762;2023-01-25T02:16:26;1.40;99.90
8557;DHT22;4316;53.840;10.762;2023-01-25T02:18:54;1.20;99.90
8557;DHT22;4316;53.840;10.762;2023-01-25T02:21:23;1.20;99.90
8557;DHT22;4316;53.840;10.762;2023-01-25T02:24:00;1.20;99.90
8557;DHT22;4316;53.840;10.762;2023-01-25T02:26:28;1.10;99.90
8557;DHT22;4316;53.840;10.762;2023-01-25T02:29:01;1.00;99.90
8557;DHT22;4316;53.840;10.762;2023-01-25T02:31:27;1.10;99.90
8557;DHT22;4316;53.840;10.762;2023-01-25T02:33:53;1.10;99.90
8557;DHT22;4316;53.840;10.762;2023-01-25T02:36:26;1.10;99.90
8557;DHT22;4316;53.840;10.762;2023-01-25T02:38:59;1.10;99.90
8557;DHT22;4316;53.840;10.762;2023-01-25T02:44:01;1.00;99.90
8557;DHT22;4316;53.840;10.762;2023-01-25T02:46:30;1.00;99.90
8557;DHT22;4316;53.840;10.762;2023-01-25T02:48:57;0.90;99.90
8557;DHT22;4316;53.840;10.762;2023-01-25T02:51:25;1.00;99.90
8557;DHT22;4316;53.840;10.762;2023-01-25T02:53:51;1.10;99.90
8557;DHT22;4316;53.840;10.762;2023-01-25T02:56:17;1.00;99.90
8557;DHT22;4316;53.840;10.762;2023-01-25T02:58:43;1.10;99.90
8557;DHT22;4316;53.840;10.762;2023-01-25T03:01:10;1.00;99.90
8557;DHT22;4316;53.840;10.762;2023-01-25T03:03:39;1.00;99.90
8557;DHT22;4316;53.840;10.762;2023-01-25T03:06:06;1.10;99.90
8557;DHT22;4316;53.840;10.762;2023-01-25T03:08:32;1.00;99.90
8557;DHT22;4316;53.840;10.762;2023-01-25T03:10:59;1.00;99.90
8557;DHT22;4316;53.840;10.762;2023-01-25T03:13:27;0.90;99.90
8557;DHT22;4316;53.840;10.762;2023-01-25T03:16:02;0.90;99.90
8557;DHT22;4316;53.840;10.762;2023-01-25T03:18:28;1.00;99.90
8557;DHT22;4316;53.840;10.762;2023-01-25T03:20:54;1.00;99.90
8557;DHT22;4316;53.840;10.762;2023-01-25T03:23:20;1.00;99.90
8557;DHT22;4316;53.840;10.762;2023-01-25T03:25:46;1.00;99.90
8557;DHT22;4316;53.840;10.762;2023-01-25T03:28:15;1.00;99.90
8557;DHT22;4316;53.840;10.762;2023-01-25T03:30:41;0.90;99.90
8557;DHT22;4316;53.840;10.762;2023-01-25T03:33:07;0.90;99.90
8557;DHT22;4316;53.840;10.762;2023-01-25T03:35:33;1.00;99.90
8557;DHT22;4316;53.840;10.762;2023-01-25T03:37:58;0.90;99.90
8557;DHT22;4316;53.840;10.762;2023-01-25T03:40:24;0.90;99.90
8557;DHT22;4316;53.840;10.762;2023-01-25T03:42:51;0.90;99.90
8557;DHT22;4316;53.840;10.762;2023-01-25T03:45:17;0.90;99.90
8557;DHT22;4316;53.840;10.762;2023-01-25T03:47:43;0.80;99.90
8557;DHT22;4316;53.840;10.762;2023-01-25T03:50:09;0.80;99.90
8557;DHT22;4316;53.840;10.762;2023-01-25T03:52:36;0.90;99.90
8557;DHT22;4316;53.840;10.762;2023-01-25T03:55:07;0.90;99.90
8557;DHT22;4316;53.840;10.762;2023-01-25T03:57:35;0.90;99.90
8557;DHT22;4316;53.840;10.762;2023-01-25T04:00:03;0.80;99.90
8557;DHT22;4316;53.840;10.762;2023-01-25T04:02:40;0.80;99.90
8557;DHT22;4316;53.840;10.762;2023-01-25T04:05:07;0.80;99.90
8557;DHT22;4316;53.840;10.762;2023-01-25T04:07:33;0.80;99.90
8557;DHT22;4316;53.840;10.762;2023-01-25T04:10:01;0.80;99.90
8557;DHT22;4316;53.840;10.762;2023-01-25T04:12:27;0.80;99.90
8557;DHT22;4316;53.840;10.762;2023-01-25T04:14:52;0.80;99.90
8557;DHT22;4316;53.840;10.762;2023-01-25T04:17:21;0.80;99.90
8557;DHT22;4316;53.840;10.762;2023-01-25T04:19:50;0.80;99.90
8557;DHT22;4316;53.840;10.762;2023-01-25T04:22:18;0.80;99.90
8557;DHT22;4316;53.840;10.762;2023-01-25T04:24:44;0.90;99.90
8557;DHT22;4316;53.840;10.762;2023-01-25T04:27:09;1.00;99.90
8557;DHT22;4316;53.840;10.762;2023-01-25T04:29:43;0.90;99.90
8557;DHT22;4316;53.840;10.762;2023-01-25T04:32:15;0.80;99.90
8557;DHT22;4316;53.840;10.762;2023-01-25T04:34:40;0.80;99.90
8557;DHT22;4316;53.840;10.762;2023-01-25T04:37:11;0.80;99.90
8557;DHT22;4316;53.840;10.762;2023-01-25T04:39:46;0.80;99.90
8557;DHT22;4316;53.840;10.762;2023-01-25T04:42:12;0.80;99.90
8557;DHT22;4316;53.840;10.762;2023-01-25T04:44:37;0.80;99.90
8557;DHT22;4316;53.840;10.762;2023-01-25T04:47:03;0.80;99.90
8557;DHT22;4316;53.840;10.762;2023-01-25T04:49:28;0.80;99.90
8557;DHT22;4316;53.840;10.762;2023-01-25T04:51:55;0.80;99.90
8557;DHT22;4316;53.840;10.762;2023-01-25T04:54:20;0.80;99.90
8557;DHT22;4316;53.840;10.762;2023-01-25T04:56:46;0.80;99.90
8557;DHT22;4316;53.840;10.762;2023-01-25T04:59:12;0.90;99.90
8557;DHT22;4316;53.840;10.762;2023-01-25T05:01:37;0.90;99.90
8557;DHT22;4316;53.840;10.762;2023-01-25T05:04:05;0.90;99.90
8557;DHT22;4316;53.840;10.762;2023-01-25T05:06:36;0.80;99.90
8557;DHT22;4316;53.840;10.762;2023-01-25T05:09:02;0.80;99.90
8557;DHT22;4316;53.840;10.762;2023-01-25T05:11:28;0.80;99.90
8557;DHT22;4316;53.840;10.762;2023-01-25T05:14:00;0.80;99.90
8557;DHT22;4316;53.840;10.762;2023-01-25T05:16:30;0.70;99.90
8557;DHT22;4316;53.840;10.762;2023-01-25T05:18:57;0.60;99.90
8557;DHT22;4316;53.840;10.762;2023-01-25T05:21:31;0.60;99.90
8557;DHT22;4316;53.840;10.762;2023-01-25T05:24:15;0.60;99.90
8557;DHT22;4316;53.840;10.762;2023-01-25T05:26:41;0.60;99.90
8557;DHT22;4316;53.840;10.762;2023-01-25T05:29:29;0.60;99.90
8557;DHT22;4316;53.840;10.762;2023-01-25T05:32:01;0.60;99.90
8557;DHT22;4316;53.840;10.762;2023-01-25T05:34:28;0.60;99.90
8557;DHT22;4316;53.840;10.762;2023-01-25T05:36:53;0.60;99.90
8557;DHT22;4316;53.840;10.762;2023-01-25T05:39:19;0.60;99.90
8557;DHT22;4316;53.840;10.762;2023-01-25T05:41:47;0.60;99.90
8557;DHT22;4316;53.840;10.762;2023-01-25T05:44:13;0.60;99.90
8557;DHT22;4316;53.840;10.762;2023-01-25T05:46:44;0.60;99.90
8557;DHT22;4316;53.840;10.762;2023-01-25T05:49:09;0.60;99.90
8557;DHT22;4316;53.840;10.762;2023-01-25T05:51:36;0.50;99.90
8557;DHT22;4316;53.840;10.762;2023-01-25T05:54:03;0.50;99.90
8557;DHT22;4316;53.840;10.762;2023-01-25T05:56:30;0.60;99.90
8557;DHT22;4316;53.840;10.762;2023-01-25T05:58:57;0.60;99.90
8557;DHT22;4316;53.840;10.762;2023-01-25T06:01:24;0.50;99.90
8557;DHT22;4316;53.840;10.762;2023-01-25T06:03:55;0.50;99.90
8557;DHT22;4316;53.840;10.762;2023-01-25T06:06:23;0.50;99.90
8557;DHT22;4316;53.840;10.762;2023-01-25T06:08:51;0.60;99.90
8557;DHT22;4316;53.840;10.762;2023-01-25T06:11:19;0.60;99.90
8557;DHT22;4316;53.840;10.762;2023-01-25T06:13:47;0.60;99.90
8557;DHT22;4316;53.840;10.762;2023-01-25T06:16:13;0.50;99.90
8557;DHT22;4316;53.840;10.762;2023-01-25T06:18:42;0.60;99.90
8557;DHT22;4316;53.840;10.762;2023-01-25T06:21:18;0.60;99.90
8557;DHT22;4316;53.840;10.762;2023-01-25T06:23:44;0.50;99.90
8557;DHT22;4316;53.840;10.762;2023-01-25T06:26:11;0.50;99.90
8557;DHT22;4316;53.840;10.762;2023-01-25T06:28:37;0.50;99.90
8557;DHT22;4316;53.840;10.762;2023-01-25T06:31:08;0.50;99.90
8557;DHT22;4316;53.840;10.762;2023-01-25T06:33:35;0.50;99.90
8557;DHT22;4316;53.840;10.762;2023-01-25T06:36:06;0.40;99.90
8557;DHT22;4316;53.840;10.762;2023-01-25T06:38:33;0.40;99.90
8557;DHT22;4316;53.840;10.762;2023-01-25T06:41:03;0.40;99.90
8557;DHT22;4316;53.840;10.762;2023-01-25T06:43:29;0.40;99.90
8557;DHT22;4316;53.840;10.762;2023-01-25T06:46:04;0.40;99.90
8557;DHT22;4316;53.840;10.762;2023-01-25T06:48:31;0.30;99.90
8557;DHT22;4316;53.840;10.762;2023-01-25T06:50:58;0.40;99.90
8557;DHT22;4316;53.840;10.762;2023-01-25T06:53:30;0.30;99.90
8557;DHT22;4316;53.840;10.762;2023-01-25T06:56:07;0.30;99.90
8557;DHT22;4316;53.840;10.762;2023-01-25T06:58:34;0.30;99.90
8557;DHT22;4316;53.840;10.762;2023-01-25T07:01:02;0.40;99.90
8557;DHT22;4316;53.840;10.762;2023-01-25T07:03:28;0.40;99.90
8557;DHT22;4316;53.840;10.762;2023-01-25T07:06:06;0.40;99.90
8557;DHT22;4316;53.840;10.762;2023-01-25T07:08:33;0.30;99.90
8557;DHT22;4316;53.840;10.762;2023-01-25T07:11:03;0.40;99.90
8557;DHT22;4316;53.840;10.762;2023-01-25T07:13:29;0.40;99.90
8557;DHT22;4316;53.840;10.762;2023-01-25T07:15:57;0.30;99.90
8557;DHT22;4316;53.840;10.762;2023-01-25T07:18:24;0.30;99.90
8557;DHT22;4316;53.840;10.762;2023-01-25T07:20:50;0.30;99.90
8557;DHT22;4316;53.840;10.762;2023-01-25T07:23:16;0.20;99.90
8557;DHT22;4316;53.840;10.762;2023-01-25T07:25:46;0.20;99.90
8557;DHT22;4316;53.840;10.762;2023-01-25T07:28:13;0.20;99.90
8557;DHT22;4316;53.840;10.762;2023-01-25T07:30:39;0.20;99.90
8557;DHT22;4316;53.840;10.762;2023-01-25T07:33:05;0.20;99.90
8557;DHT22;4316;53.840;10.762;2023-01-25T07:35:31;0.20;99.90
8557;DHT22;4316;53.840;10.762;2023-01-25T07:37:57;0.20;99.90
8557;DHT22;4316;53.840;10.762;2023-01-25T07:40:23;0.10;99.90
8557;DHT22;4316;53.840;10.762;2023-01-25T07:42:53;0.00;99.90
8557;DHT22;4316;53.840;10.762;2023-01-25T07:45:19;0.00;99.90
8557;DHT22;4316;53.840;10.762;2023-01-25T07:47:45;0.10;99.90
8557;DHT22;4316;53.840;10.762;2023-01-25T07:50:11;0.00;99.90
8557;DHT22;4316;53.840;10.762;2023-01-25T07:52:37;0.00;99.90
8557;DHT22;4316;53.840;10.762;2023-01-25T07:55:04;0.00;99.90
8557;DHT22;4316;53.840;10.762;2023-01-25T07:57:29;0.10;99.90
8557;DHT22;4316;53.840;10.762;2023-01-25T07:59:55;0.00;99.90
8557;DHT22;4316;53.840;10.762;2023-01-25T08:02:21;0.00;99.90
8557;DHT22;4316;53.840;10.762;2023-01-25T08:04:46;0.00;99.90
8557;DHT22;4316;53.840;10.762;2023-01-25T08:07:13;0.00;99.90
8557;DHT22;4316;53.840;10.762;2023-01-25T08:09:40;0.00;99.90
8557;DHT22;4316;53.840;10.762;2023-01-25T08:12:06;0.00;99.90
8557;DHT22;4316;53.840;10.762;2023-01-25T08:14:32;0.00;99.90
8557;DHT22;4316;53.840;10.762;2023-01-25T08:16:58;0.10;99.90
8557;DHT22;4316;53.840;10.762;2023-01-25T08:19:24;0.00;99.90
8557;DHT22;4316;53.840;10.762;2023-01-25T08:21:50;0.00;99.90
8557;DHT22;4316;53.840;10.762;2023-01-25T08:24:17;0.00;99.90
8557;DHT22;4316;53.840;10.762;2023-01-25T08:26:43;0.00;99.90
8557;DHT22;4316;53.840;10.762;2023-01-25T08:29:10;0.00;99.90
8557;DHT22;4316;53.840;10.762;2023-01-25T08:31:37;-0.10;99.90
8557;DHT22;4316;53.840;10.762;2023-01-25T08:34:04;-0.10;99.90
8557;DHT22;4316;53.840;10.762;2023-01-25T08:36:30;-0.10;99.90
8557;DHT22;4316;53.840;10.762;2023-01-25T08:38:58;-0.10;99.90
8557;DHT22;4316;53.840;10.762;2023-01-25T08:41:24;-0.10;99.90
8557;DHT22;4316;53.840;10.762;2023-01-25T08:43:52;-0.10;99.90
8557;DHT22;4316;53.840;10.762;2023-01-25T08:46:18;-0.10;99.90
8557;DHT22;4316;53.840;10.762;2023-01-25T08:48:44;0.00;99.90
8557;DHT22;4316;53.840;10.762;2023-01-25T08:51:16;0.00;99.90
8557;DHT22;4316;53.840;10.762;2023-01-25T08:53:41;0.00;99.90
8557;DHT22;4316;53.840;10.762;2023-01-25T08:56:09;0.00;99.90
8557;DHT22;4316;53.840;10.762;2023-01-25T08:58:41;0.00;99.90
8557;DHT22;4316;53.840;10.762;2023-01-25T09:01:09;0.10;99.90
8557;DHT22;4316;53.840;10.762;2023-01-25T09:03:37;0.10;99.90
8557;DHT22;4316;53.840;10.762;2023-01-25T09:06:02;0.10;99.90
8557;DHT22;4316;53.840;10.762;2023-01-25T09:08:28;0.20;99.90
8557;DHT22;4316;53.840;10.762;2023-01-25T09:10:54;0.10;99.90
8557;DHT22;4316;53.840;10.762;2023-01-25T09:13:19;0.00;99.90
8557;DHT22;4316;53.840;10.762;2023-01-25T09:15:45;0.00;99.90
8557;DHT22;4316;53.840;10.762;2023-01-25T09:18:11;0.00;99.90
8557;DHT22;4316;53.840;10.762;2023-01-25T09:20:37;-0.10;99.90
8557;DHT22;4316;53.840;10.762;2023-01-25T09:23:04;0.00;99.90
8557;DHT22;4316;53.840;10.762;2023-01-25T09:25:29;0.00;99.90
8557;DHT22;4316;53.840;10.762;2023-01-25T09:27:55;0.10;99.90
8557;DHT22;4316;53.840;10.762;2023-01-25T09:30:20;0.10;99.90
8557;DHT22;4316;53.840;10.762;2023-01-25T09:32:51;0.20;99.90
8557;DHT22;4316;53.840;10.762;2023-01-25T09:35:16;0.10;99.90
8557;DHT22;4316;53.840;10.762;2023-01-25T09:37:42;0.10;99.90
8557;DHT22;4316;53.840;10.762;2023-01-25T09:40:19;0.20;99.90
8557;DHT22;4316;53.840;10.762;2023-01-25T09:43:08;0.10;99.90
8557;DHT22;4316;53.840;10.762;2023-01-25T09:45:37;0.10;99.90
8557;DHT22;4316;53.840;10.762;2023-01-25T09:48:17;0.10;99.90
8557;DHT22;4316;53.840;10.762;2023-01-25T09:51:21;0.10;99.90
8557;DHT22;4316;53.840;10.762;2023-01-25T09:53:51;0.50;99.90
8557;DHT22;4316;53.840;10.762;2023-01-25T09:56:26;0.20;99.90
8557;DHT22;4316;53.840;10.762;2023-01-25T09:58:59;0.10;99.90
8557;DHT22;4316;53.840;10.762;2023-01-25T10:01:32;0.10;99.90
8557;DHT22;4316;53.840;10.762;2023-01-25T10:04:24;0.20;99.90
8557;DHT22;4316;53.840;10.762;2023-01-25T10:06:53;0.20;99.90
8557;DHT22;4316;53.840;10.762;2023-01-25T10:09:43;0.20;99.90
8557;DHT22;4316;53.840;10.762;2023-01-25T10:12:19;0.20;99.90
8557;DHT22;4316;53.840;10.762;2023-01-25T10:14:46;0.20;99.90
8557;DHT22;4316;53.840;10.762;2023-01-25T10:17:51;0.20;99.90
8557;DHT22;4316;53.840;10.762;2023-01-25T10:22:50;0.20;99.90
8557;DHT22;4316;53.840;10.762;2023-01-25T10:25:33;0.30;99.90
8557;DHT22;4316;53.840;10.762;2023-01-25T10:28:23;0.30;99.90
8557;DHT22;4316;53.840;10.762;2023-01-25T10:31:01;0.40;99.90
8557;DHT22;4316;53.840;10.762;2023-01-25T10:33:28;0.40;99.90
8557;DHT22;4316;53.840;10.762;2023-01-25T10:35:56;0.40;99.90
8557;DHT22;4316;53.840;10.762;2023-01-25T10:38:33;0.40;99.90
8557;DHT22;4316;53.840;10.762;2023-01-25T10:41:05;0.40;99.90
8557;DHT22;4316;53.840;10.762;2023-01-25T10:43:32;0.30;99.90
8557;DHT22;4316;53.840;10.762;2023-01-25T10:45:58;0.40;99.90
8557;DHT22;4316;53.840;10.762;2023-01-25T10:48:30;0.40;99.90
8557;DHT22;4316;53.840;10.762;2023-01-25T10:50:58;0.40;99.90
8557;DHT22;4316;53.840;10.762;2023-01-25T10:53:30;0.50;99.90
8557;DHT22;4316;53.840;10.762;2023-01-25T10:56:14;0.50;99.90
8557;DHT22;4316;53.840;10.762;2023-01-25T10:58:46;0.50;99.90
8557;DHT22;4316;53.840;10.762;2023-01-25T11:01:25;0.50;99.90
8557;DHT22;4316;53.840;10.762;2023-01-25T11:03:52;0.50;99.90
8557;DHT22;4316;53.840;10.762;2023-01-25T11:06:30;0.50;99.90
8557;DHT22;4316;53.840;10.762;2023-01-25T11:08:56;0.50;99.90
8557;DHT22;4316;53.840;10.762;2023-01-25T11:11:24;0.50;99.90
8557;DHT22;4316;53.840;10.762;2023-01-25T11:13:51;0.50;99.90
8557;DHT22;4316;53.840;10.762;2023-01-25T11:16:36;0.50;99.90
8557;DHT22;4316;53.840;10.762;2023-01-25T11:19:25;0.60;99.90
8557;DHT22;4316;53.840;10.762;2023-01-25T11:21:52;0.60;99.90
8557;DHT22;4316;53.840;10.762;2023-01-25T11:24:18;0.60;99.90
8557;DHT22;4316;53.840;10.762;2023-01-25T11:26:44;0.60;99.90
8557;DHT22;4316;53.840;10.762;2023-01-25T11:29:19;0.60;99.90
8557;DHT22;4316;53.840;10.762;2023-01-25T11:31:49;0.60;99.90
8557;DHT22;4316;53.840;10.762;2023-01-25T11:34:20;0.60;99.90
8557;DHT22;4316;53.840;10.762;2023-01-25T11:42:25;0.60;99.90
8557;DHT22;4316;53.840;10.762;2023-01-25T11:48:12;0.50;99.90
8557;DHT22;4316;53.840;10.762;2023-01-25T11:51:05;0.50;99.90
8557;DHT22;4316;53.840;10.762;2023-01-25T11:53:48;0.50;99.90
8557;DHT22;4316;53.840;10.762;2023-01-25T11:56:39;0.50;99.90
8557;DHT22;4316;53.840;10.762;2023-01-25T12:02:37;0.60;99.90
8557;DHT22;4316;53.840;10.762;2023-01-25T12:08:19;1.20;99.90
8557;DHT22;4316;53.840;10.762;2023-01-25T12:10:58;0.60;99.90
8557;DHT22;4316;53.840;10.762;2023-01-25T12:19:32;0.50;99.90
8557;DHT22;4316;53.840;10.762;2023-01-25T12:22:21;0.90;99.90
8557;DHT22;4316;53.840;10.762;2023-01-25T12:27:57;0.50;99.90
8557;DHT22;4316;53.840;10.762;2023-01-25T12:30:51;0.50;99.90
8557;DHT22;4316;53.840;10.762;2023-01-25T12:36:03;0.60;99.90
8557;DHT22;4316;53.840;10.762;2023-01-25T12:38:38;0.60;99.90
8557;DHT22;4316;53.840;10.762;2023-01-25T12:41:25;0.60;99.90
8557;DHT22;4316;53.840;10.762;2023-01-25T12:46:32;0.70;99.90
8557;DHT22;4316;53.840;10.762;2023-01-25T12:49:05;0.70;99.90
8557;DHT22;4316;53.840;10.762;2023-01-25T12:51:37;0.70;99.90
8557;DHT22;4316;53.840;10.762;2023-01-25T12:54:21;0.70;99.90
8557;DHT22;4316;53.840;10.762;2023-01-25T13:02:46;0.70;99.90
8557;DHT22;4316;53.840;10.762;2023-01-25T13:07:51;0.60;99.90
8557;DHT22;4316;53.840;10.762;2023-01-25T13:10:25;0.60;99.90
8557;DHT22;4316;53.840;10.762;2023-01-25T13:12:55;0.60;99.90
8557;DHT22;4316;53.840;10.762;2023-01-25T13:17:59;0.70;99.90
8557;DHT22;4316;53.840;10.762;2023-01-25T13:23:45;0.60;99.90
8557;DHT22;4316;53.840;10.762;2023-01-25T13:28:51;0.70;99.90
8557;DHT22;4316;53.840;10.762;2023-01-25T13:42:36;0.60;99.90
8557;DHT22;4316;53.840;10.762;2023-01-25T13:45:17;0.70;99.90
8557;DHT22;4316;53.840;10.762;2023-01-25T13:47:59;0.70;99.90
8557;DHT22;4316;53.840;10.762;2023-01-25T13:50:28;0.70;99.90
8557;DHT22;4316;53.840;10.762;2023-01-25T13:53:04;0.70;99.90
8557;DHT22;4316;53.840;10.762;2023-01-25T13:55:38;0.70;99.90
8557;DHT22;4316;53.840;10.762;2023-01-25T13:58:31;0.70;99.90
8557;DHT22;4316;53.840;10.762;2023-01-25T14:01:03;0.70;99.90
8557;DHT22;4316;53.840;10.762;2023-01-25T14:03:33;0.70;99.90
8557;DHT22;4316;53.840;10.762;2023-01-25T14:06:00;0.70;99.90
8557;DHT22;4316;53.840;10.762;2023-01-25T14:08:29;0.70;99.90
8557;DHT22;4316;53.840;10.762;2023-01-25T14:10:56;0.60;99.90
8557;DHT22;4316;53.840;10.762;2023-01-25T14:13:22;0.60;99.90
8557;DHT22;4316;53.840;10.762;2023-01-25T14:15:55;0.60;99.90
8557;DHT22;4316;53.840;10.762;2023-01-25T14:18:28;0.60;99.90
8557;DHT22;4316;53.840;10.762;2023-01-25T14:23:34;0.70;99.90
8557;DHT22;4316;53.840;10.762;2023-01-25T14:25:59;0.70;99.90
8557;DHT22;4316;53.840;10.762;2023-01-25T14:28:26;0.60;99.90
8557;DHT22;4316;53.840;10.762;2023-01-25T14:30:55;0.60;99.90
8557;DHT22;4316;53.840;10.762;2023-01-25T14:33:28;0.60;99.90
8557;DHT22;4316;53.840;10.762;2023-01-25T14:36:01;0.60;99.90
8557;DHT22;4316;53.840;10.762;2023-01-25T14:38:31;0.60;99.90
8557;DHT22;4316;53.840;10.762;2023-01-25T14:43:29;0.50;99.90
8557;DHT22;4316;53.840;10.762;2023-01-25T14:45:55;0.50;99.90
8557;DHT22;4316;53.840;10.762;2023-01-25T14:48:36;0.60;99.90
8557;DHT22;4316;53.840;10.762;2023-01-25T14:51:26;0.60;99.90
8557;DHT22;4316;53.840;10.762;2023-01-25T14:54:02;0.50;99.90
8557;DHT22;4316;53.840;10.762;2023-01-25T14:56:33;0.50;99.90
8557;DHT22;4316;53.840;10.762;2023-01-25T14:58:59;0.50;99.90
8557;DHT22;4316;53.840;10.762;2023-01-25T15:01:31;0.50;99.90
8557;DHT22;4316;53.840;10.762;2023-01-25T15:04:00;0.50;99.90
8557;DHT22;4316;53.840;10.762;2023-01-25T15:06:26;0.50;99.90
8557;DHT22;4316;53.840;10.762;2023-01-25T15:08:52;0.50;99.90
8557;DHT22;4316;53.840;10.762;2023-01-25T15:11:38;0.50;99.90
8557;DHT22;4316;53.840;10.762;2023-01-25T15:14:18;0.50;99.90
8557;DHT22;4316;53.840;10.762;2023-01-25T15:16:45;0.50;99.90
8557;DHT22;4316;53.840;10.762;2023-01-25T15:19:50;0.50;99.90
8557;DHT22;4316;53.840;10.762;2023-01-25T15:22:16;0.50;99.90
8557;DHT22;4316;53.840;10.762;2023-01-25T15:24:41;0.50;99.90
8557;DHT22;4316;53.840;10.762;2023-01-25T15:27:09;0.50;99.90
8557;DHT22;4316;53.840;10.762;2023-01-25T15:29:35;0.50;99.90
8557;DHT22;4316;53.840;10.762;2023-01-25T15:32:03;0.40;99.90
8557;DHT22;4316;53.840;10.762;2023-01-25T15:34:28;0.40;99.90
8557;DHT22;4316;53.840;10.762;2023-01-25T15:36:56;0.40;99.90
8557;DHT22;4316;53.840;10.762;2023-01-25T15:39:22;0.40;99.90
8557;DHT22;4316;53.840;10.762;2023-01-25T15:41:48;0.40;99.90
8557;DHT22;4316;53.840;10.762;2023-01-25T15:44:14;0.50;99.90
8557;DHT22;4316;53.840;10.762;2023-01-25T15:46:42;0.50;99.90
8557;DHT22;4316;53.840;10.762;2023-01-25T15:49:15;0.50;99.90
8557;DHT22;4316;53.840;10.762;2023-01-25T15:51:42;0.50;99.90
8557;DHT22;4316;53.840;10.762;2023-01-25T15:54:07;0.50;99.90
8557;DHT22;4316;53.840;10.762;2023-01-25T15:56:35;0.50;99.90
8557;DHT22;4316;53.840;10.762;2023-01-25T15:59:05;0.50;99.90
8557;DHT22;4316;53.840;10.762;2023-01-25T16:01:31;0.60;99.90
8557;DHT22;4316;53.840;10.762;2023-01-25T16:03:58;0.60;99.90
8557;DHT22;4316;53.840;10.762;2023-01-25T16:06:40;0.60;99.90
8557;DHT22;4316;53.840;10.762;2023-01-25T16:09:18;0.60;99.90
8557;DHT22;4316;53.840;10.762;2023-01-25T16:11:46;0.80;99.90
8557;DHT22;4316;53.840;10.762;2023-01-25T16:14:12;0.90;99.90
8557;DHT22;4316;53.840;10.762;2023-01-25T16:16:48;1.00;99.90
8557;DHT22;4316;53.840;10.762;2023-01-25T16:19:16;1.20;99.90
8557;DHT22;4316;53.840;10.762;2023-01-25T16:21:42;1.30;99.90
8557;DHT22;4316;53.840;10.762;2023-01-25T16:24:09;1.20;99.90
8557;DHT22;4316;53.840;10.762;2023-01-25T16:26:36;1.20;99.90
8557;DHT22;4316;53.840;10.762;2023-01-25T16:29:03;1.30;99.90
8557;DHT22;4316;53.840;10.762;2023-01-25T16:31:28;1.30;99.90
8557;DHT22;4316;53.840;10.762;2023-01-25T16:33:54;1.40;99.90
8557;DHT22;4316;53.840;10.762;2023-01-25T16:36:21;1.30;99.90
8557;DHT22;4316;53.840;10.762;2023-01-25T16:38:47;1.30;99.90
8557;DHT22;4316;53.840;10.762;2023-01-25T16:41:13;1.30;99.90
8557;DHT22;4316;53.840;10.762;2023-01-25T16:43:44;1.30;99.90
8557;DHT22;4316;53.840;10.762;2023-01-25T16:46:18;1.20;99.90
8557;DHT22;4316;53.840;10.762;2023-01-25T16:48:47;1.10;99.90
8557;DHT22;4316;53.840;10.762;2023-01-25T16:51:19;1.00;99.90
8557;DHT22;4316;53.840;10.762;2023-01-25T16:53:45;1.00;99.90
8557;DHT22;4316;53.840;10.762;2023-01-25T16:56:26;1.00;99.90
8557;DHT22;4316;53.840;10.762;2023-01-25T16:58:54;1.00;99.90
8557;DHT22;4316;53.840;10.762;2023-01-25T17:01:21;1.00;99.90
8557;DHT22;4316;53.840;10.762;2023-01-25T17:03:48;1.10;99.90
8557;DHT22;4316;53.840;10.762;2023-01-25T17:06:23;1.10;99.90
8557;DHT22;4316;53.840;10.762;2023-01-25T17:08:50;1.10;99.90
8557;DHT22;4316;53.840;10.762;2023-01-25T17:11:17;1.10;99.90
8557;DHT22;4316;53.840;10.762;2023-01-25T17:13:51;1.20;99.90
8557;DHT22;4316;53.840;10.762;2023-01-25T17:16:18;1.10;99.90
8557;DHT22;4316;53.840;10.762;2023-01-25T17:18:45;1.00;99.90
8557;DHT22;4316;53.840;10.762;2023-01-25T17:21:12;1.00;99.90
8557;DHT22;4316;53.840;10.762;2023-01-25T17:23:39;1.00;99.90
8557;DHT22;4316;53.840;10.762;2023-01-25T17:26:07;1.10;99.90
8557;DHT22;4316;53.840;10.762;2023-01-25T17:28:33;1.10;99.90
8557;DHT22;4316;53.840;10.762;2023-01-25T17:30:58;1.10;99.90
8557;DHT22;4316;53.840;10.762;2023-01-25T17:33:24;1.20;99.90
8557;DHT22;4316;53.840;10.762;2023-01-25T17:35:50;1.20;99.90
8557;DHT22;4316;53.840;10.762;2023-01-25T17:38:16;1.10;99.90